Terminal Aerodrome Forecast
Issued by NWS Charleston, WV

Current Version | Previous Version | Text Only | Print | Product List | Glossary Off
Versions: 1 2 3 4 5 6 7 8 9 10 11 12 13 14 15 16 17 18 19 20 21 22 23 24 25 26

000
FTUS41 KRLX 261426 AAA
TAFHTS
TAF AMD
KHTS 261426Z 2614/2712 18004KT P6SM SCT060
     FM261900 20008KT P6SM VCTS BKN050CB
     FM262100 20008KT P6SM TSRA BKN040CB
     FM270000 19005KT 6SM SHRA BR VCTS BKN035CB
     FM270500 20005KT P6SM SHRA VCTS BKN035CB
     FM271000 21005KT P6SM VCTS OVC040CB=

USA.gov is the U.S. government's official web portal to all federal, state and local government web resources and services.